Main page
METAR-TAF:

METAR-TAF

Airports :

East Midlands Airport

East Midlands, England

latitude: 52-50N, longitude: 001-20W, elevation: 94 m

Current weather observation

The report was made 35 minutes ago, at 07:20 UTC
Wind 7 kt from the West
Temperature 4°C
Humidity 81%
Pressure 1031 hPa
Visibility 10 km or more
no clouds below 1500 m and no cumulonimbus

METAR: EGNX 240720Z 27007KT CAVOK 04/01 Q1031

Time: 07:55 (07:55 UTC)

Forecast

The report was made 2 hours and 56 minutes ago, at 04:59 UTC
Forecast valid from 24 at 06 UTC to 25 at 06 UTC
Wind 3 kt from variable directions
Visibility 10 km or more
Few clouds at a height of 4500 ft
Becoming
from 24 at 08 UTC to 24 at 11 UTC
Wind 12 kt from the West/Northwest
Probability 30% :
Temporary
from 24 at 20 UTC to 25 at 01 UTC
Wind 15 kt from the West/Northwest with gusts up to 25 kt
Visibility: 8000 m
light rain showers

TAF: EGNX 240459Z 2406/2506 VRB03KT 9999 FEW045 BECMG 2408/2411 29012KT PROB30 TEMPO 2420/2501 30015G25KT 8000 -SHRA

Weather observations and forecasts of more than 4000 airports (METAR and TAF reports).

The available stations are represented by yellow and red dots on the map.

Hover mouse over dot to see the name of the station.

Then click to see weather observations and forecasts.

To change the map : click on the green buttons with a black cross to zoom in, on the green button with a dash to zoom out, or on the green arrows for adjacent maps.


METAR-TAF: